Time;durP1;ratioP1;P1;durP2;ratioP2;P2;SDS_P1;SDS_P2;PMS_P1;PMS_P2;Temp;Humidity;BMP_temperature;BMP_pressure;BME280_temperature;BME280_humidity;BME280_pressure;Samples;Min_cycle;Max_cycle;Signal;HPM_P1;HPM_P2
2022/07/15 00:00:23;;;;;;;4.50;2.10;;;;;18.00;97367.60;;;;111015;1249;41146;-75
2022/07/15 00:03:03;;;;;;;6.90;1.80;;;;;18.00;97366.20;;;;111381;1246;41245;-76
2022/07/15 00:05:32;;;;;;;5.20;2.00;;;;;18.00;97364.40;;;;111196;1248;41222;-76
2022/07/15 00:08:02;;;;;;;4.90;2.30;;;;;17.96;97366.80;;;;111363;1246;41590;-74
2022/07/15 00:10:31;;;;;;;5.00;2.10;;;;;17.90;97363.40;;;;111225;1247;42573;-75
2022/07/15 00:13:02;;;;;;;4.30;1.90;;;;;17.90;97368.00;;;;111297;1247;41139;-75
2022/07/15 00:15:32;;;;;;;5.70;2.20;;;;;17.90;97367.20;;;;111197;1247;41251;-77
2022/07/15 00:18:03;;;;;;;4.10;1.90;;;;;17.86;97361.60;;;;111501;1247;41148;-76
2022/07/15 00:20:36;;;;;;;;;;;;;17.80;97359.80;;;;111369;1247;41162;-74
2022/07/15 00:23:07;;;;;;;6.20;2.20;;;;;17.80;97360.40;;;;111288;1246;41470;-74
2022/07/15 00:25:37;;;;;;;4.30;1.90;;;;;17.80;97359.00;;;;111289;1247;40843;-76
2022/07/15 00:28:08;;;;;;;4.80;2.10;;;;;17.80;97360.80;;;;111230;1246;41270;-76
2022/07/15 00:30:40;;;;;;;4.90;1.90;;;;;17.80;97360.80;;;;111439;1246;41167;-72
2022/07/15 00:33:11;;;;;;;5.00;2.10;;;;;17.80;97356.00;;;;111269;1247;41732;-75
2022/07/15 00:35:41;;;;;;;5.80;2.30;;;;;17.80;97350.80;;;;111232;1247;41500;-75
2022/07/15 00:38:11;;;;;;;4.50;2.00;;;;;17.78;97349.20;;;;111218;1247;41325;-75
2022/07/15 00:40:48;;;;;;;4.40;2.10;;;;;17.80;97351.00;;;;111265;1247;41609;-76
2022/07/15 00:43:19;;;;;;;4.70;2.00;;;;;17.80;97347.40;;;;111154;1248;41119;-75
2022/07/15 00:45:48;;;;;;;3.50;1.70;;;;;17.80;97347.00;;;;111168;1247;41601;-76
2022/07/15 00:48:17;;;;;;;4.10;1.80;;;;;17.80;97342.60;;;;111311;1247;41307;-75
2022/07/15 00:50:48;;;;;;;;;;;;;17.80;97340.60;;;;111220;1247;41617;-71
2022/07/15 00:53:20;;;;;;;4.50;1.80;;;;;17.80;97338.60;;;;111382;1246;41149;-76
2022/07/15 00:55:54;;;;;;;4.60;1.70;;;;;17.80;97336.40;;;;111175;1248;41272;-75
2022/07/15 00:58:24;;;;;;;4.70;1.90;;;;;17.80;97341.40;;;;111220;1247;41115;-74
2022/07/15 01:00:57;;;;;;;2.70;1.60;;;;;17.80;97339.20;;;;111096;1248;41445;-76
2022/07/15 01:03:28;;;;;;;3.70;1.60;;;;;17.80;97342.40;;;;111119;1247;41142;-76
2022/07/15 01:05:59;;;;;;;3.20;1.70;;;;;17.80;97342.20;;;;111182;1247;41133;-76
2022/07/15 01:08:29;;;;;;;;;;;;;17.76;97340.40;;;;111347;1247;41613;-74
2022/07/15 01:11:01;;;;;;;3.80;1.60;;;;;17.70;97341.00;;;;111231;1247;41610;-75
2022/07/15 01:13:32;;;;;;;;;;;;;17.70;97338.00;;;;111434;1244;42417;-76
2022/07/15 01:16:04;;;;;;;3.00;1.50;;;;;17.60;97335.80;;;;111203;1247;41139;-73
2022/07/15 01:18:36;;;;;;;3.20;1.50;;;;;17.60;97335.60;;;;111262;1247;41345;-75
2022/07/15 01:21:06;;;;;;;3.60;1.80;;;;;17.50;97331.20;;;;111184;1248;41136;-77
2022/07/15 01:23:40;;;;;;;4.10;1.70;;;;;17.50;97327.00;;;;111141;1247;41159;-75
2022/07/15 01:26:26;;;;;;;2.90;1.70;;;;;17.40;97329.80;;;;111246;1247;41623;-74
2022/07/15 01:28:56;;;;;;;4.00;1.80;;;;;17.32;97323.60;;;;111224;1246;41202;-75
2022/07/15 01:31:26;;;;;;;4.40;1.80;;;;;17.30;97323.20;;;;111176;1249;42386;-74
2022/07/15 01:33:57;;;;;;;;;;;;;17.30;97320.40;;;;111209;1247;41185;-76
2022/07/15 01:36:28;;;;;;;3.50;1.80;;;;;17.20;97322.40;;;;111216;1247;41137;-76
2022/07/15 01:39:02;;;;;;;5.00;1.90;;;;;17.20;97322.60;;;;111528;1245;42372;-76
2022/07/15 01:41:53;;;;;;;4.20;1.90;;;;;17.22;97318.80;;;;111172;1247;42097;-75
2022/07/15 01:44:26;;;;;;;4.60;1.90;;;;;17.30;97319.00;;;;111180;1248;41136;-70
2022/07/15 01:46:57;;;;;;;3.90;1.80;;;;;17.30;97316.60;;;;111185;1248;42010;-77
2022/07/15 01:49:32;;;;;;;4.00;1.70;;;;;17.30;97319.80;;;;111132;1248;41779;-75
2022/07/15 01:52:14;;;;;;;3.70;1.80;;;;;17.30;97321.00;;;;111389;1247;41239;-75
2022/07/15 01:54:46;;;;;;;2.60;1.50;;;;;17.20;97318.20;;;;111166;1248;41264;-77
2022/07/15 01:57:18;;;;;;;3.80;1.80;;;;;17.20;97318.20;;;;111333;1247;41148;-77
2022/07/15 01:59:55;;;;;;;5.00;2.10;;;;;17.20;97315.20;;;;111219;1246;41709;-77
2022/07/15 02:02:48;;;;;;;6.10;1.90;;;;;17.10;97314.00;;;;111184;1246;41267;-75
2022/07/15 02:05:22;;;;;;;3.60;1.90;;;;;17.00;97315.60;;;;111240;1247;41148;-76
2022/07/15 02:07:54;;;;;;;3.40;1.60;;;;;17.00;97313.20;;;;111115;1247;41156;-76
2022/07/15 02:10:25;;;;;;;;;;;;;17.00;97312.80;;;;111518;1246;41701;-76
2022/07/15 02:12:56;;;;;;;5.10;1.90;;;;;16.90;97313.20;;;;111239;1245;41130;-76
2022/07/15 02:15:29;;;;;;;4.40;1.90;;;;;16.90;97311.00;;;;111152;1247;41149;-76
2022/07/15 02:18:04;;;;;;;5.80;2.00;;;;;16.80;97313.40;;;;111433;1246;41262;-76
2022/07/15 02:20:35;;;;;;;4.10;2.00;;;;;16.80;97312.00;;;;111487;1245;41122;-75
2022/07/15 02:23:08;;;;;;;4.20;1.90;;;;;16.70;97313.80;;;;111373;1247;41149;-75
2022/07/15 02:25:39;;;;;;;5.10;1.90;;;;;16.70;97317.40;;;;111271;1244;41170;-78
2022/07/15 02:28:09;;;;;;;5.00;1.70;;;;;16.70;97313.00;;;;111239;1246;41485;-76
2022/07/15 02:30:40;;;;;;;3.90;1.80;;;;;16.68;97314.80;;;;111205;1247;41305;-77
2022/07/15 02:33:10;;;;;;;4.90;2.10;;;;;16.60;97311.00;;;;111257;1247;41198;-75
2022/07/15 02:35:40;;;;;;;3.70;1.80;;;;;16.58;97312.40;;;;111201;1247;41268;-77
2022/07/15 02:38:11;;;;;;;4.80;1.90;;;;;16.52;97313.40;;;;111175;1247;41151;-77
2022/07/15 02:40:42;;;;;;;5.20;2.20;;;;;16.50;97318.40;;;;111102;1249;41160;-74
2022/07/15 02:43:12;;;;;;;;;;;;;16.50;97320.20;;;;111238;1247;41247;-76
2022/07/15 02:45:43;;;;;;;4.50;1.90;;;;;16.40;97318.60;;;;111193;1249;42401;-76
2022/07/15 02:48:16;;;;;;;5.60;1.90;;;;;16.40;97316.00;;;;111253;1247;41485;-76
2022/07/15 02:50:48;;;;;;;4.50;1.90;;;;;16.40;97315.80;;;;110968;1244;41142;-76
2022/07/15 02:53:19;;;;;;;5.10;2.00;;;;;16.40;97318.60;;;;111285;1247;41610;-77
2022/07/15 02:55:50;;;;;;;5.10;2.00;;;;;16.40;97317.60;;;;111320;1247;42213;-77
2022/07/15 02:58:22;;;;;;;5.70;2.20;;;;;16.38;97314.00;;;;111303;1247;41247;-75
2022/07/15 03:00:52;;;;;;;5.60;2.20;;;;;16.30;97314.60;;;;111232;1247;41472;-74
2022/07/15 03:03:22;;;;;;;4.90;2.00;;;;;16.30;97318.80;;;;111191;1247;41136;-75
2022/07/15 03:05:52;;;;;;;4.00;1.90;;;;;16.30;97317.00;;;;111263;1247;41188;-76
2022/07/15 03:08:22;;;;;;;5.00;2.10;;;;;16.30;97315.60;;;;111140;1247;41151;-74
2022/07/15 03:10:52;;;;;;;5.10;1.90;;;;;16.32;97318.20;;;;111179;1247;41148;-74
2022/07/15 03:13:25;;;;;;;5.00;1.80;;;;;16.40;97315.00;;;;111013;1246;41846;-70
2022/07/15 03:15:55;;;;;;;4.70;2.10;;;;;16.40;97314.00;;;;111180;1247;41167;-76
2022/07/15 03:18:25;;;;;;;;;;;;;16.40;97317.00;;;;111231;1246;41537;-77
2022/07/15 03:20:55;;;;;;;3.40;1.70;;;;;16.40;97316.60;;;;111281;1246;41602;-76
2022/07/15 03:23:25;;;;;;;5.10;2.20;;;;;16.40;97313.40;;;;111186;1247;40995;-76
2022/07/15 03:25:54;;;;;;;4.10;1.70;;;;;16.40;97318.80;;;;111203;1248;41368;-76
2022/07/15 03:28:24;;;;;;;4.90;2.00;;;;;16.40;97317.60;;;;111237;1247;41134;-72
2022/07/15 03:30:53;;;;;;;5.90;2.50;;;;;16.46;97315.00;;;;111189;1247;41697;-71
2022/07/15 03:33:24;;;;;;;6.90;2.30;;;;;16.50;97311.80;;;;111182;1248;41247;-78
2022/07/15 03:35:54;;;;;;;5.70;2.20;;;;;16.50;97314.60;;;;111195;1247;41324;-73
2022/07/15 03:38:23;;;;;;;4.90;1.80;;;;;16.60;97310.20;;;;111174;1247;41379;-76
2022/07/15 03:40:53;;;;;;;5.30;2.10;;;;;16.60;97313.80;;;;111169;1248;42486;-76
2022/07/15 03:43:26;;;;;;;5.80;2.10;;;;;16.62;97317.40;;;;111314;1247;41499;-77
2022/07/15 03:45:56;;;;;;;4.10;2.00;;;;;16.70;97319.60;;;;111278;1247;41198;-73
2022/07/15 03:48:26;;;;;;;4.10;1.90;;;;;16.70;97316.00;;;;111340;1247;41147;-75
2022/07/15 03:50:57;;;;;;;6.60;2.60;;;;;16.80;97318.00;;;;111146;1247;41718;-71
2022/07/15 03:53:26;;;;;;;8.40;3.10;;;;;16.86;97320.60;;;;111174;1249;41265;-71
2022/07/15 03:55:56;;;;;;;7.90;3.10;;;;;16.90;97318.40;;;;111253;1247;41140;-78
2022/07/15 03:58:25;;;;;;;9.30;3.10;;;;;16.90;97317.40;;;;111355;1247;42428;-76
2022/07/15 04:00:54;;;;;;;6.30;2.30;;;;;16.90;97324.60;;;;111102;1248;41597;-75
2022/07/15 04:03:23;;;;;;;8.10;2.20;;;;;16.90;97327.60;;;;111272;1246;41592;-76
2022/07/15 04:05:53;;;;;;;5.00;2.10;;;;;17.00;97325.60;;;;111198;1249;41254;-74
2022/07/15 04:08:23;;;;;;;5.40;2.20;;;;;17.00;97327.40;;;;111073;1248;41156;-75
2022/07/15 04:10:52;;;;;;;7.30;2.10;;;;;17.10;97322.00;;;;111442;1247;41178;-77
2022/07/15 04:13:23;;;;;;;6.10;2.30;;;;;17.20;97317.20;;;;111223;1247;42396;-76
2022/07/15 04:15:52;;;;;;;5.90;2.00;;;;;17.30;97318.40;;;;111149;1248;41142;-79
2022/07/15 04:18:21;;;;;;;6.40;2.30;;;;;17.44;97310.40;;;;111230;1247;42034;-76
2022/07/15 04:20:52;;;;;;;5.60;2.10;;;;;17.60;97311.60;;;;111446;1247;41147;-78
2022/07/15 04:23:21;;;;;;;4.40;1.90;;;;;17.74;97309.00;;;;111110;1248;42732;-77
2022/07/15 04:25:52;;;;;;;;;;;;;18.06;97309.80;;;;111220;1247;42239;-78
2022/07/15 04:28:22;;;;;;;4.50;1.90;;;;;18.48;97310.00;;;;111227;1247;41134;-78
2022/07/15 04:30:51;;;;;;;4.70;2.10;;;;;18.96;97304.80;;;;111172;1247;41822;-77
2022/07/15 04:33:23;;;;;;;6.80;2.30;;;;;19.50;97303.60;;;;111277;1247;41134;-79
2022/07/15 04:35:52;;;;;;;5.80;2.10;;;;;20.10;97301.40;;;;111205;1247;42256;-80
2022/07/15 04:38:21;;;;;;;7.10;2.30;;;;;20.60;97302.20;;;;111257;1247;41152;-73
2022/07/15 04:40:51;;;;;;;5.10;2.00;;;;;20.98;97293.80;;;;111213;1248;41699;-74
2022/07/15 04:43:20;;;;;;;5.20;2.20;;;;;21.50;97282.40;;;;111190;1248;41244;-76
2022/07/15 04:45:50;;;;;;;6.80;2.20;;;;;22.00;97286.40;;;;111095;1248;41139;-71
2022/07/15 04:51:13;;;;;;;6.10;1.80;;;;;23.14;97284.40;;;;111221;1248;41156;-76
2022/07/15 04:53:43;;;;;;;11.10;2.70;;;;;23.70;97281.80;;;;111179;1247;42156;-78
2022/07/15 04:56:13;;;;;;;8.00;2.50;;;;;24.10;97275.80;;;;111239;1247;42376;-76
2022/07/15 04:58:42;;;;;;;10.50;3.40;;;;;24.12;97277.60;;;;111288;1247;41147;-71
2022/07/15 05:01:12;;;;;;;13.40;3.50;;;;;24.06;97290.00;;;;111116;1249;41254;-75
2022/07/15 05:03:42;;;;;;;9.00;3.00;;;;;23.66;97287.80;;;;111080;1247;41953;-75
2022/07/15 05:06:11;;;;;;;9.80;2.70;;;;;23.80;97292.60;;;;111276;1245;41130;-77
2022/07/15 05:08:40;;;;;;;7.20;2.70;;;;;23.90;97267.80;;;;111271;1247;41240;-76
2022/07/15 05:11:10;;;;;;;7.10;2.60;;;;;23.90;97297.20;;;;111205;1247;41172;-72
2022/07/15 05:13:39;;;;;;;7.30;2.40;;;;;24.00;97302.40;;;;111105;1248;41250;-77
2022/07/15 05:16:08;;;;;;;5.90;2.20;;;;;24.02;97286.40;;;;111159;1247;41410;-78
2022/07/15 05:18:38;;;;;;;8.40;2.20;;;;;24.42;97304.00;;;;111354;1247;41617;-78
2022/07/15 05:21:07;;;;;;;3.80;1.70;;;;;24.50;97293.00;;;;110923;1247;41163;-74
2022/07/15 05:23:40;;;;;;;9.40;2.40;;;;;24.70;97299.40;;;;111233;1247;41531;-74
2022/07/15 05:26:31;;;;;;;9.30;2.40;;;;;24.50;97305.80;;;;111295;1247;41143;-70
2022/07/15 05:29:05;;;;;;;12.80;2.40;;;;;24.40;97307.60;;;;111394;1245;42725;-76
2022/07/15 05:31:35;;;;;;;7.90;2.30;;;;;24.40;97310.60;;;;111226;1247;41296;-77
2022/07/15 05:34:04;;;;;;;6.40;2.30;;;;;24.32;97309.20;;;;111191;1247;42704;-78
2022/07/15 05:36:35;;;;;;;11.60;2.50;;;;;24.24;97307.00;;;;111290;1247;41143;-75
2022/07/15 05:39:04;;;;;;;5.30;1.80;;;;;24.14;97303.80;;;;111177;1247;41155;-78
2022/07/15 05:41:35;;;;;;;;;;;;;24.20;97305.60;;;;111235;1247;42392;-75
2022/07/15 05:44:04;;;;;;;8.00;2.00;;;;;24.40;97305.00;;;;111234;1247;41771;-75
2022/07/15 05:46:37;;;;;;;5.10;2.10;;;;;24.50;97302.80;;;;110964;1247;41161;-74
2022/07/15 05:49:07;;;;;;;6.80;2.30;;;;;24.60;97303.60;;;;111160;1247;41245;-76
2022/07/15 05:51:37;;;;;;;5.60;2.00;;;;;24.62;97301.80;;;;111121;1249;41255;-78
2022/07/15 05:54:06;;;;;;;4.50;2.00;;;;;24.80;97299.60;;;;111183;1246;41265;-79
2022/07/15 05:56:36;;;;;;;7.70;2.40;;;;;25.16;97292.80;;;;111152;1247;41584;-79
2022/07/15 05:59:05;;;;;;;6.20;1.90;;;;;25.80;97299.20;;;;111485;1247;41148;-78
2022/07/15 06:01:35;;;;;;;5.00;1.70;;;;;26.72;97297.20;;;;111529;1245;41608;-79
2022/07/15 06:04:04;;;;;;;4.90;1.80;;;;;27.68;97290.80;;;;111195;1247;41247;-79
2022/07/15 06:06:35;;;;;;;2.80;1.50;;;;;28.10;97285.60;;;;111162;1245;41215;-79
2022/07/15 06:09:04;;;;;;;3.50;1.60;;;;;28.66;97287.00;;;;111180;1248;41172;-84
2022/07/15 06:11:33;;;;;;;4.70;1.90;;;;;29.28;97284.40;;;;111408;1247;41147;-81
2022/07/15 06:14:03;;;;;;;2.20;1.40;;;;;29.50;97285.40;;;;111214;1247;41155;-83
2022/07/15 06:16:32;;;;;;;3.30;1.60;;;;;29.40;97281.40;;;;111245;1247;41252;-79
2022/07/15 06:19:01;;;;;;;4.00;1.60;;;;;29.24;97284.60;;;;111192;1247;42583;-82
2022/07/15 06:21:31;;;;;;;5.30;1.80;;;;;29.30;97288.80;;;;111293;1247;41876;-79
2022/07/15 06:24:00;;;;;;;4.40;1.70;;;;;29.30;97286.60;;;;111231;1247;41245;-78
2022/07/15 06:26:29;;;;;;;2.70;1.60;;;;;29.20;97283.20;;;;111243;1247;41938;-76
2022/07/15 06:28:59;;;;;;;3.10;1.50;;;;;28.90;97277.00;;;;111127;1247;41149;-72
2022/07/15 06:31:28;;;;;;;4.30;1.70;;;;;29.00;97284.60;;;;111200;1248;41112;-78
2022/07/15 06:33:59;;;;;;;3.20;1.60;;;;;29.10;97277.20;;;;111158;1248;41150;-77
2022/07/15 06:36:28;;;;;;;7.40;1.50;;;;;29.24;97275.00;;;;111207;1247;41502;-79
2022/07/15 06:38:57;;;;;;;5.90;1.80;;;;;29.08;97276.80;;;;111184;1247;41230;-75
2022/07/15 06:41:27;;;;;;;2.40;1.40;;;;;29.20;97273.80;;;;111468;1246;41135;-74
2022/07/15 06:43:59;;;;;;;3.00;1.50;;;;;29.60;97279.80;;;;111448;1247;41787;-74
2022/07/15 06:46:44;;;;;;;4.30;1.50;;;;;30.06;97284.80;;;;111245;1248;41935;-74
2022/07/15 06:49:13;;;;;;;4.20;1.60;;;;;30.62;97279.20;;;;111287;1247;41267;-75
2022/07/15 06:51:42;;;;;;;3.90;1.80;;;;;30.50;97278.20;;;;111180;1247;41250;-75
2022/07/15 06:54:11;;;;;;;5.80;1.70;;;;;31.20;97284.20;;;;111144;1248;41148;-75
2022/07/15 06:56:41;;;;;;;3.70;1.60;;;;;31.40;97282.40;;;;111183;1247;41201;-74
2022/07/15 06:59:10;;;;;;;3.20;1.30;;;;;31.36;97293.40;;;;111179;1248;41155;-74
2022/07/15 07:01:39;;;;;;;3.20;1.40;;;;;30.98;97300.20;;;;111149;1248;41142;-74
2022/07/15 07:04:08;;;;;;;5.00;1.40;;;;;30.72;97300.00;;;;111342;1247;41250;-73
2022/07/15 07:06:37;;;;;;;3.90;1.80;;;;;30.40;97299.40;;;;111248;1247;41148;-73
2022/07/15 07:09:08;;;;;;;2.40;1.60;;;;;30.76;97285.80;;;;111049;1250;41376;-74
2022/07/15 07:11:39;;;;;;;3.70;1.50;;;;;30.94;97305.40;;;;111145;1248;41264;-74
2022/07/15 07:14:07;;;;;;;;;;;;;30.34;97291.40;;;;111168;1248;41693;-73
2022/07/15 07:16:40;;;;;;;3.10;1.40;;;;;29.96;97296.00;;;;111148;1247;41216;-74
2022/07/15 07:19:09;;;;;;;3.40;1.70;;;;;29.60;97297.20;;;;111233;1248;41255;-74
2022/07/15 07:21:38;;;;;;;4.10;1.60;;;;;29.42;97309.20;;;;111344;1247;41645;-73
2022/07/15 07:24:07;;;;;;;3.50;1.50;;;;;29.36;97311.80;;;;111193;1247;41892;-73
2022/07/15 07:26:37;;;;;;;3.60;1.50;;;;;29.54;97313.40;;;;111337;1247;41386;-73
2022/07/15 07:29:06;;;;;;;3.30;1.30;;;;;29.50;97309.40;;;;111172;1248;41543;-72
2022/07/15 07:31:35;;;;;;;1.90;1.30;;;;;29.50;97314.80;;;;111200;1247;42476;-73
2022/07/15 07:34:04;;;;;;;3.50;1.40;;;;;29.70;97316.20;;;;111319;1247;41561;-73
2022/07/15 07:36:33;;;;;;;3.90;1.50;;;;;30.00;97317.20;;;;111186;1248;41148;-74
2022/07/15 07:39:02;;;;;;;2.50;1.40;;;;;30.20;97319.20;;;;111354;1247;41731;-73
2022/07/15 07:41:31;;;;;;;4.50;1.70;;;;;30.00;97316.60;;;;111154;1247;41152;-74
2022/07/15 07:44:00;;;;;;;2.90;1.40;;;;;29.90;97311.20;;;;110733;1250;335609;-74
2022/07/15 07:46:29;;;;;;;3.10;1.40;;;;;29.70;97311.80;;;;110980;1250;41162;-73
2022/07/15 07:48:58;;;;;;;2.90;1.40;;;;;29.60;97316.60;;;;111266;1247;41286;-73
2022/07/15 07:51:47;;;;;;;5.70;1.60;;;;;29.80;97314.20;;;;110901;1249;42150;-72
2022/07/15 07:54:17;;;;;;;4.30;1.60;;;;;30.00;97307.40;;;;111141;1249;41141;-74
2022/07/15 07:56:46;;;;;;;3.80;1.60;;;;;29.94;97304.20;;;;111140;1249;40962;-72
2022/07/15 07:59:15;;;;;;;6.30;1.50;;;;;29.80;97305.60;;;;111249;1247;41244;-72
2022/07/15 08:01:43;;;;;;;4.60;1.50;;;;;29.60;97308.20;;;;111380;1247;41257;-74
2022/07/15 08:04:14;;;;;;;3.50;1.60;;;;;29.88;97304.80;;;;111311;1247;41153;-73
2022/07/15 08:06:43;;;;;;;3.20;1.50;;;;;30.10;97309.40;;;;111165;1248;41901;-73
2022/07/15 08:09:12;;;;;;;1.30;1.20;;;;;30.30;97305.40;;;;111200;1248;41151;-74
2022/07/15 08:11:41;;;;;;;2.20;1.30;;;;;30.60;97304.00;;;;111114;1250;41143;-74
2022/07/15 08:14:09;;;;;;;3.40;1.40;;;;;31.00;97311.00;;;;111223;1248;41198;-73
2022/07/15 08:16:42;;;;;;;3.90;1.60;;;;;31.34;97308.60;;;;111419;1247;41152;-74
2022/07/15 08:19:16;;;;;;;1.90;1.20;;;;;31.50;97306.20;;;;111132;1248;41146;-74
2022/07/15 08:21:46;;;;;;;2.50;1.40;;;;;31.50;97305.20;;;;111193;1248;42377;-74
2022/07/15 08:24:15;;;;;;;3.10;1.40;;;;;31.40;97302.60;;;;111181;1248;41134;-73
2022/07/15 08:26:44;;;;;;;3.10;1.40;;;;;31.60;97297.20;;;;111362;1247;41163;-74
2022/07/15 08:29:13;;;;;;;2.60;1.50;;;;;31.42;97296.40;;;;111180;1248;41156;-74
2022/07/15 08:31:42;;;;;;;2.50;1.30;;;;;31.60;97298.40;;;;111488;1247;41146;-73
2022/07/15 08:34:12;;;;;;;2.90;1.50;;;;;31.78;97306.40;;;;111218;1247;41156;-73
2022/07/15 08:36:41;;;;;;;4.30;1.70;;;;;32.00;97298.80;;;;111318;1247;41152;-73
2022/07/15 08:39:11;;;;;;;3.30;1.30;;;;;31.82;97298.40;;;;111040;1248;41134;-73
2022/07/15 08:41:41;;;;;;;2.10;1.40;;;;;31.60;97299.60;;;;111339;1246;41127;-75
2022/07/15 08:44:10;;;;;;;3.80;1.50;;;;;31.72;97295.20;;;;111219;1247;41154;-73
2022/07/15 08:46:41;;;;;;;1.80;1.20;;;;;32.00;97294.20;;;;111156;1248;41774;-73
2022/07/15 08:49:16;;;;;;;6.90;1.50;;;;;32.18;97297.00;;;;111211;1247;41259;-72
2022/07/15 08:51:46;;;;;;;3.60;1.50;;;;;32.40;97293.80;;;;111143;1249;41165;-73
2022/07/15 08:54:16;;;;;;;4.10;1.60;;;;;32.74;97292.80;;;;111148;1250;41140;-74
2022/07/15 08:56:45;;;;;;;4.30;1.60;;;;;32.90;97289.80;;;;111170;1247;41150;-74
2022/07/15 08:59:14;;;;;;;3.00;1.40;;;;;32.44;97287.40;;;;111393;1247;41261;-74
2022/07/15 09:01:45;;;;;;;4.20;1.40;;;;;32.54;97288.80;;;;111193;1248;41563;-74
2022/07/15 09:04:16;;;;;;;3.90;1.30;;;;;32.40;97287.40;;;;111231;1247;41136;-74
2022/07/15 09:06:47;;;;;;;4.20;1.30;;;;;32.76;97290.00;;;;111156;1247;42101;-74
2022/07/15 09:09:26;;;;;;;1.80;1.30;;;;;32.84;97297.20;;;;111245;1247;41942;-74
2022/07/15 09:12:06;;;;;;;3.30;1.40;;;;;33.00;97296.20;;;;111235;1248;41592;-74
2022/07/15 09:14:45;;;;;;;2.60;1.30;;;;;33.68;97295.40;;;;111147;1248;41122;-72
2022/07/15 09:17:15;;;;;;;5.60;1.30;;;;;33.26;97290.40;;;;111232;1247;41261;-72
2022/07/15 09:20:08;;;;;;;5.00;1.50;;;;;33.04;97294.00;;;;110962;1249;42060;-72
2022/07/15 09:22:52;;;;;;;1.80;1.30;;;;;33.98;97300.80;;;;111182;1248;41254;-72
2022/07/15 09:25:21;;;;;;;3.70;1.40;;;;;34.46;97302.00;;;;111207;1247;41294;-74
2022/07/15 09:27:51;;;;;;;3.40;1.20;;;;;34.98;97299.40;;;;111185;1248;41239;-73
2022/07/15 09:33:39;;;;;;;2.40;1.30;;;;;36.20;97288.40;;;;111152;1249;41626;-73
2022/07/15 09:36:22;;;;;;;2.50;1.40;;;;;36.16;97285.80;;;;111402;1247;41166;-73
2022/07/15 09:38:57;;;;;;;3.40;1.40;;;;;36.80;97291.80;;;;111331;1247;41939;-73
2022/07/15 09:41:32;;;;;;;2.90;1.40;;;;;37.50;97283.60;;;;111221;1247;42069;-73
2022/07/15 09:44:14;;;;;;;4.50;1.40;;;;;38.00;97285.00;;;;111148;1247;41575;-74
2022/07/15 09:46:52;;;;;;;2.90;1.40;;;;;38.46;97289.60;;;;111166;1249;41127;-73
2022/07/15 09:49:24;;;;;;;4.60;1.60;;;;;39.16;97281.60;;;;111001;1248;42065;-73
2022/07/15 09:52:02;;;;;;;4.50;1.60;;;;;39.04;97282.40;;;;111290;1247;41143;-74
2022/07/15 09:54:53;;;;;;;2.50;1.30;;;;;37.76;97290.40;;;;111202;1248;41141;-74
2022/07/15 09:57:22;;;;;;;3.20;1.40;;;;;37.10;97284.80;;;;111228;1248;40729;-73
2022/07/15 09:59:51;;;;;;;4.20;1.40;;;;;37.90;97284.40;;;;111160;1248;41256;-73
2022/07/15 10:02:22;;;;;;;3.50;1.40;;;;;38.74;97275.80;;;;111124;1248;41143;-72
2022/07/15 10:04:51;;;;;;;1.70;1.10;;;;;38.90;97270.40;;;;111276;1247;41176;-73
2022/07/15 10:07:23;;;;;;;3.40;1.20;;;;;38.80;97271.60;;;;111153;1248;41112;-73
2022/07/15 10:09:56;;;;;;;2.40;1.30;;;;;38.70;97270.40;;;;111223;1248;41672;-73
2022/07/15 10:12:54;;;;;;;3.60;1.30;;;;;38.60;97271.20;;;;111378;1247;41171;-73
2022/07/15 10:15:29;;;;;;;2.10;1.20;;;;;38.20;97272.20;;;;111140;1248;40726;-73
2022/07/15 10:18:11;;;;;;;3.60;1.60;;;;;37.90;97270.00;;;;111110;1249;41722;-72
2022/07/15 10:20:52;;;;;;;5.30;1.50;;;;;37.70;97277.60;;;;111107;1247;41949;-71
2022/07/15 10:23:38;;;;;;;3.30;1.40;;;;;37.70;97283.40;;;;111179;1249;41140;-72
2022/07/15 10:26:33;;;;;;;2.30;1.30;;;;;37.84;97288.40;;;;111190;1249;41582;-71
2022/07/15 10:29:04;;;;;;;2.40;1.20;;;;;37.66;97282.60;;;;111147;1249;41977;-71
2022/07/15 10:31:34;;;;;;;2.20;1.40;;;;;37.38;97284.20;;;;111178;1248;41905;-72
2022/07/15 10:34:03;;;;;;;1.70;1.30;;;;;37.00;97285.60;;;;111268;1246;41885;-73
2022/07/15 10:36:53;;;;;;;5.10;1.50;;;;;36.90;97290.80;;;;111230;1247;41843;-72
2022/07/15 10:39:26;;;;;;;3.50;1.50;;;;;36.74;97286.20;;;;111223;1247;41836;-72
2022/07/15 10:42:03;;;;;;;2.30;1.20;;;;;36.60;97287.20;;;;111423;1245;42395;-71
2022/07/15 10:44:34;;;;;;;2.60;1.40;;;;;36.58;97284.60;;;;111216;1248;41175;-72
2022/07/15 10:47:12;;;;;;;2.90;1.50;;;;;36.48;97282.80;;;;110976;1251;41164;-73
2022/07/15 10:49:43;;;;;;;1.20;1.10;;;;;36.40;97279.80;;;;111526;1246;41511;-73
2022/07/15 10:52:28;;;;;;;4.10;1.50;;;;;36.50;97275.20;;;;111344;1247;41145;-72
2022/07/15 10:55:00;;;;;;;2.80;1.20;;;;;36.80;97281.00;;;;111169;1248;41249;-73
2022/07/15 10:57:44;;;;;;;1.20;1.10;;;;;36.90;97269.40;;;;111419;1245;41341;-73
2022/07/15 11:00:32;;;;;;;3.60;1.50;;;;;37.16;97269.60;;;;111233;1247;41720;-72
2022/07/15 11:03:02;;;;;;;3.50;1.40;;;;;37.60;97264.60;;;;111186;1248;41940;-73
2022/07/15 11:05:32;;;;;;;3.10;1.20;;;;;37.60;97265.60;;;;111366;1247;42095;-71
2022/07/15 11:08:41;;;;;;;7.30;1.70;;;;;37.94;97262.00;;;;111037;1251;41123;-71
2022/07/15 11:11:13;;;;;;;7.20;1.40;;;;;39.08;97251.80;;;;111027;1250;41149;-72
2022/07/15 11:13:47;;;;;;;4.70;1.50;;;;;39.90;97249.80;;;;111136;1247;42498;-73
2022/07/15 11:16:19;;;;;;;3.40;1.20;;;;;40.48;97252.00;;;;111219;1247;41384;-73
2022/07/15 11:18:52;;;;;;;1.70;1.00;;;;;40.88;97245.60;;;;111169;1247;41210;-73
2022/07/15 11:21:22;;;;;;;4.30;1.20;;;;;41.40;97248.40;;;;110898;1250;41144;-73
2022/07/15 11:23:53;;;;;;;2.20;1.30;;;;;41.26;97248.00;;;;111354;1247;41141;-73
2022/07/15 11:26:23;;;;;;;2.40;1.20;;;;;41.26;97247.40;;;;111366;1247;41112;-73
2022/07/15 11:28:54;;;;;;;3.20;1.30;;;;;41.18;97244.40;;;;111209;1247;41152;-73
2022/07/15 11:31:24;;;;;;;1.80;1.10;;;;;40.94;97249.20;;;;111184;1248;41613;-72
2022/07/15 11:33:54;;;;;;;4.60;1.50;;;;;41.04;97245.80;;;;111168;1247;41259;-74
2022/07/15 11:36:24;;;;;;;1.40;1.00;;;;;41.20;97241.80;;;;111253;1248;42566;-72
2022/07/15 11:38:53;;;;;;;;;;;;;41.20;97241.00;;;;111143;1247;41256;-73
2022/07/15 11:44:29;;;;;;;4.60;1.30;;;;;41.48;97241.40;;;;111192;1247;41134;-73
2022/07/15 11:47:00;;;;;;;3.00;1.40;;;;;40.42;97245.40;;;;111330;1246;42085;-73
2022/07/15 11:49:35;;;;;;;3.40;1.30;;;;;39.34;97247.40;;;;111226;1247;41985;-73
2022/07/15 11:52:06;;;;;;;2.50;1.30;;;;;38.70;97242.40;;;;111567;1247;41266;-73
2022/07/15 11:54:37;;;;;;;2.00;1.30;;;;;39.00;97241.80;;;;111203;1246;41145;-73
2022/07/15 11:57:08;;;;;;;2.80;1.20;;;;;39.34;97246.20;;;;111182;1247;41149;-73
2022/07/15 11:59:38;;;;;;;2.70;1.00;;;;;40.20;97243.40;;;;111462;1246;41139;-72
2022/07/15 12:02:12;;;;;;;2.50;1.10;;;;;40.68;97245.80;;;;111251;1247;41240;-72
2022/07/15 12:04:42;;;;;;;2.80;1.40;;;;;41.08;97243.00;;;;111271;1247;41109;-74
2022/07/15 12:07:14;;;;;;;1.10;1.00;;;;;41.30;97233.20;;;;111131;1248;41245;-72
2022/07/15 12:09:50;;;;;;;2.10;1.10;;;;;40.84;97241.60;;;;111349;1246;42252;-72
2022/07/15 12:12:19;;;;;;;2.40;1.10;;;;;40.50;97251.20;;;;111155;1248;41516;-73
2022/07/15 12:14:50;;;;;;;1.30;1.10;;;;;40.00;97248.40;;;;111444;1247;41123;-72
2022/07/15 12:17:18;;;;;;;1.90;1.10;;;;;39.42;97251.60;;;;111158;1247;41168;-72
2022/07/15 12:19:50;;;;;;;2.60;1.30;;;;;38.36;97257.20;;;;110996;1251;41494;-73
2022/07/15 12:22:19;;;;;;;3.10;1.10;;;;;37.42;97261.20;;;;111223;1247;41143;-72
2022/07/15 12:24:51;;;;;;;2.70;1.20;;;;;36.58;97259.40;;;;111075;1250;41127;-72
2022/07/15 12:27:37;;;;;;;2.10;1.10;;;;;36.30;97259.00;;;;111460;1247;41135;-73
2022/07/15 12:30:08;;;;;;;2.80;1.30;;;;;36.02;97264.20;;;;111366;1246;41127;-73
2022/07/15 12:32:38;;;;;;;2.00;1.20;;;;;35.78;97269.20;;;;111257;1246;41868;-73
2022/07/15 12:35:08;;;;;;;2.70;1.30;;;;;35.70;97273.20;;;;111170;1248;41175;-73
2022/07/15 12:37:40;;;;;;;1.20;1.10;;;;;35.46;97276.40;;;;111506;1246;41149;-72
2022/07/15 12:40:12;;;;;;;2.20;1.30;;;;;34.90;97280.20;;;;111317;1247;41151;-73
2022/07/15 12:42:49;;;;;;;3.10;1.20;;;;;34.70;97283.40;;;;111180;1247;41117;-72